sensor_id;sensor_type;location;lat;lon;timestamp;P1;durP1;ratioP1;P2;durP2;ratioP2
11638;SDS011;5875;35.940;126.892;2024-03-02T00:00:41;1.97;;;1.63;;
11638;SDS011;5875;35.940;126.892;2024-03-02T00:03:08;1.43;;;1.27;;
11638;SDS011;5875;35.940;126.892;2024-03-02T00:05:35;11.47;;;0.83;;
11638;SDS011;5875;35.940;126.892;2024-03-02T00:08:04;0.80;;;0.50;;
11638;SDS011;5875;35.940;126.892;2024-03-02T00:10:39;0.50;;;0.50;;
11638;SDS011;5875;35.940;126.892;2024-03-02T00:13:09;0.70;;;0.60;;
11638;SDS011;5875;35.940;126.892;2024-03-02T00:15:42;19.87;;;2.57;;
11638;SDS011;5875;35.940;126.892;2024-03-02T00:18:13;0.37;;;0.37;;
11638;SDS011;5875;35.940;126.892;2024-03-02T00:20:44;0.40;;;0.40;;
11638;SDS011;5875;35.940;126.892;2024-03-02T00:23:14;5.50;;;1.30;;
11638;SDS011;5875;35.940;126.892;2024-03-02T00:25:53;1.57;;;1.07;;
11638;SDS011;5875;35.940;126.892;2024-03-02T00:28:22;0.43;;;0.43;;
11638;SDS011;5875;35.940;126.892;2024-03-02T00:31:09;1.60;;;0.77;;
11638;SDS011;5875;35.940;126.892;2024-03-02T00:33:46;1.13;;;0.87;;
11638;SDS011;5875;35.940;126.892;2024-03-02T00:36:21;1.10;;;1.00;;
11638;SDS011;5875;35.940;126.892;2024-03-02T00:38:51;1.63;;;1.03;;
11638;SDS011;5875;35.940;126.892;2024-03-02T00:41:21;2.90;;;1.20;;
11638;SDS011;5875;35.940;126.892;2024-03-02T00:44:02;0.67;;;0.67;;
11638;SDS011;5875;35.940;126.892;2024-03-02T00:46:34;5.83;;;1.13;;
11638;SDS011;5875;35.940;126.892;2024-03-02T00:49:04;1.60;;;1.30;;
11638;SDS011;5875;35.940;126.892;2024-03-02T00:51:37;0.40;;;0.40;;
11638;SDS011;5875;35.940;126.892;2024-03-02T00:54:07;1.27;;;1.17;;
11638;SDS011;5875;35.940;126.892;2024-03-02T00:56:37;1.23;;;1.23;;
11638;SDS011;5875;35.940;126.892;2024-03-02T00:59:07;6.33;;;2.20;;
11638;SDS011;5875;35.940;126.892;2024-03-02T01:01:39;0.40;;;0.40;;
11638;SDS011;5875;35.940;126.892;2024-03-02T01:04:06;4.40;;;1.53;;
11638;SDS011;5875;35.940;126.892;2024-03-02T01:06:33;2.20;;;1.53;;
11638;SDS011;5875;35.940;126.892;2024-03-02T01:09:01;0.30;;;0.30;;
11638;SDS011;5875;35.940;126.892;2024-03-02T01:11:28;0.57;;;0.57;;
11638;SDS011;5875;35.940;126.892;2024-03-02T01:13:55;0.10;;;0.10;;
11638;SDS011;5875;35.940;126.892;2024-03-02T01:16:22;0.30;;;0.30;;
11638;SDS011;5875;35.940;126.892;2024-03-02T01:18:52;1.80;;;1.13;;
11638;SDS011;5875;35.940;126.892;2024-03-02T01:21:19;0.20;;;0.17;;
11638;SDS011;5875;35.940;126.892;2024-03-02T01:23:47;0.30;;;0.30;;
11638;SDS011;5875;35.940;126.892;2024-03-02T01:26:14;0.53;;;0.53;;
11638;SDS011;5875;35.940;126.892;2024-03-02T01:28:41;0.70;;;0.67;;
11638;SDS011;5875;35.940;126.892;2024-03-02T01:31:08;1.50;;;1.40;;
11638;SDS011;5875;35.940;126.892;2024-03-02T01:33:35;0.50;;;0.50;;
11638;SDS011;5875;35.940;126.892;2024-03-02T01:36:02;0.20;;;0.20;;
11638;SDS011;5875;35.940;126.892;2024-03-02T01:38:33;0.60;;;0.60;;
11638;SDS011;5875;35.940;126.892;2024-03-02T01:41:01;0.40;;;0.40;;
11638;SDS011;5875;35.940;126.892;2024-03-02T01:43:29;0.60;;;0.60;;
11638;SDS011;5875;35.940;126.892;2024-03-02T01:45:56;0.10;;;0.10;;
11638;SDS011;5875;35.940;126.892;2024-03-02T01:48:24;0.10;;;0.10;;
11638;SDS011;5875;35.940;126.892;2024-03-02T01:50:51;0.20;;;0.20;;
11638;SDS011;5875;35.940;126.892;2024-03-02T01:53:18;0.97;;;0.20;;
11638;SDS011;5875;35.940;126.892;2024-03-02T01:55:45;0.10;;;0.10;;
11638;SDS011;5875;35.940;126.892;2024-03-02T01:58:12;0.07;;;0.07;;
11638;SDS011;5875;35.940;126.892;2024-03-02T02:00:40;0.10;;;0.10;;
11638;SDS011;5875;35.940;126.892;2024-03-02T02:03:07;0.00;;;0.00;;
11638;SDS011;5875;35.940;126.892;2024-03-02T02:05:34;0.10;;;0.10;;
11638;SDS011;5875;35.940;126.892;2024-03-02T02:08:01;0.10;;;0.10;;
11638;SDS011;5875;35.940;126.892;2024-03-02T02:10:31;1.27;;;0.87;;
11638;SDS011;5875;35.940;126.892;2024-03-02T02:12:58;0.30;;;0.20;;
11638;SDS011;5875;35.940;126.892;2024-03-02T02:15:26;0.00;;;0.00;;
11638;SDS011;5875;35.940;126.892;2024-03-02T02:17:55;0.10;;;0.10;;
11638;SDS011;5875;35.940;126.892;2024-03-02T02:20:25;0.60;;;0.53;;
11638;SDS011;5875;35.940;126.892;2024-03-02T02:25:26;0.10;;;0.10;;
11638;SDS011;5875;35.940;126.892;2024-03-02T02:27:54;0.00;;;0.00;;
11638;SDS011;5875;35.940;126.892;2024-03-02T02:30:24;0.00;;;0.00;;
11638;SDS011;5875;35.940;126.892;2024-03-02T02:32:53;0.10;;;0.10;;
11638;SDS011;5875;35.940;126.892;2024-03-02T02:35:20;0.00;;;0.00;;
11638;SDS011;5875;35.940;126.892;2024-03-02T02:37:49;1.53;;;1.43;;
11638;SDS011;5875;35.940;126.892;2024-03-02T02:40:18;0.20;;;0.20;;
11638;SDS011;5875;35.940;126.892;2024-03-02T02:42:45;0.20;;;0.20;;
11638;SDS011;5875;35.940;126.892;2024-03-02T02:45:13;0.10;;;0.10;;
11638;SDS011;5875;35.940;126.892;2024-03-02T02:47:41;0.00;;;0.00;;
11638;SDS011;5875;35.940;126.892;2024-03-02T02:50:09;0.00;;;0.00;;
11638;SDS011;5875;35.940;126.892;2024-03-02T02:52:37;0.00;;;0.00;;
11638;SDS011;5875;35.940;126.892;2024-03-02T02:55:06;0.00;;;0.00;;
11638;SDS011;5875;35.940;126.892;2024-03-02T02:57:38;0.83;;;0.83;;
11638;SDS011;5875;35.940;126.892;2024-03-02T03:00:11;0.00;;;0.00;;
11638;SDS011;5875;35.940;126.892;2024-03-02T03:02:43;0.00;;;0.00;;
11638;SDS011;5875;35.940;126.892;2024-03-02T03:05:13;0.00;;;0.00;;
11638;SDS011;5875;35.940;126.892;2024-03-02T03:07:40;0.47;;;0.47;;
11638;SDS011;5875;35.940;126.892;2024-03-02T03:10:11;0.13;;;0.13;;
11638;SDS011;5875;35.940;126.892;2024-03-02T03:12:39;0.23;;;0.23;;
11638;SDS011;5875;35.940;126.892;2024-03-02T03:15:07;0.00;;;0.00;;
11638;SDS011;5875;35.940;126.892;2024-03-02T03:17:35;0.00;;;0.00;;
11638;SDS011;5875;35.940;126.892;2024-03-02T03:20:03;0.20;;;0.20;;
11638;SDS011;5875;35.940;126.892;2024-03-02T03:22:31;0.00;;;0.00;;
11638;SDS011;5875;35.940;126.892;2024-03-02T03:24:58;0.07;;;0.07;;
11638;SDS011;5875;35.940;126.892;2024-03-02T03:27:25;0.20;;;0.20;;
11638;SDS011;5875;35.940;126.892;2024-03-02T03:29:52;0.00;;;0.00;;
11638;SDS011;5875;35.940;126.892;2024-03-02T03:32:19;0.33;;;0.33;;
11638;SDS011;5875;35.940;126.892;2024-03-02T03:34:47;0.10;;;0.10;;
11638;SDS011;5875;35.940;126.892;2024-03-02T03:37:14;0.00;;;0.00;;
11638;SDS011;5875;35.940;126.892;2024-03-02T03:39:41;0.10;;;0.10;;
11638;SDS011;5875;35.940;126.892;2024-03-02T03:42:08;1.10;;;0.40;;
11638;SDS011;5875;35.940;126.892;2024-03-02T03:44:35;0.00;;;0.00;;
11638;SDS011;5875;35.940;126.892;2024-03-02T03:47:02;0.00;;;0.00;;
11638;SDS011;5875;35.940;126.892;2024-03-02T03:49:30;0.00;;;0.00;;
11638;SDS011;5875;35.940;126.892;2024-03-02T03:51:59;0.00;;;0.00;;
11638;SDS011;5875;35.940;126.892;2024-03-02T03:54:26;0.00;;;0.00;;
11638;SDS011;5875;35.940;126.892;2024-03-02T03:56:54;0.00;;;0.00;;
11638;SDS011;5875;35.940;126.892;2024-03-02T03:59:21;0.00;;;0.00;;
11638;SDS011;5875;35.940;126.892;2024-03-02T04:01:51;0.00;;;0.00;;
11638;SDS011;5875;35.940;126.892;2024-03-02T04:04:19;0.43;;;0.43;;
11638;SDS011;5875;35.940;126.892;2024-03-02T04:06:46;0.07;;;0.07;;
11638;SDS011;5875;35.940;126.892;2024-03-02T04:09:13;0.00;;;0.00;;
11638;SDS011;5875;35.940;126.892;2024-03-02T04:11:40;0.00;;;0.00;;
11638;SDS011;5875;35.940;126.892;2024-03-02T04:14:07;0.57;;;0.57;;
11638;SDS011;5875;35.940;126.892;2024-03-02T04:16:34;0.00;;;0.00;;
11638;SDS011;5875;35.940;126.892;2024-03-02T04:19:01;0.40;;;0.20;;
11638;SDS011;5875;35.940;126.892;2024-03-02T04:21:29;0.00;;;0.00;;
11638;SDS011;5875;35.940;126.892;2024-03-02T04:23:56;0.00;;;0.00;;
11638;SDS011;5875;35.940;126.892;2024-03-02T04:26:24;0.00;;;0.00;;
11638;SDS011;5875;35.940;126.892;2024-03-02T04:28:52;0.37;;;0.33;;
11638;SDS011;5875;35.940;126.892;2024-03-02T04:31:19;0.00;;;0.00;;
11638;SDS011;5875;35.940;126.892;2024-03-02T04:33:47;0.00;;;0.00;;
11638;SDS011;5875;35.940;126.892;2024-03-02T04:36:14;0.00;;;0.00;;
11638;SDS011;5875;35.940;126.892;2024-03-02T04:38:41;0.00;;;0.00;;
11638;SDS011;5875;35.940;126.892;2024-03-02T04:41:08;41.40;;;1.30;;
11638;SDS011;5875;35.940;126.892;2024-03-02T04:43:38;0.00;;;0.00;;
11638;SDS011;5875;35.940;126.892;2024-03-02T04:46:05;0.00;;;0.00;;
11638;SDS011;5875;35.940;126.892;2024-03-02T04:48:33;0.67;;;0.67;;
11638;SDS011;5875;35.940;126.892;2024-03-02T04:51:00;0.10;;;0.10;;
11638;SDS011;5875;35.940;126.892;2024-03-02T04:53:30;0.00;;;0.00;;
11638;SDS011;5875;35.940;126.892;2024-03-02T04:55:57;0.10;;;0.10;;
11638;SDS011;5875;35.940;126.892;2024-03-02T04:58:44;0.00;;;0.00;;
11638;SDS011;5875;35.940;126.892;2024-03-02T05:01:11;0.07;;;0.07;;
11638;SDS011;5875;35.940;126.892;2024-03-02T05:03:38;0.00;;;0.00;;
11638;SDS011;5875;35.940;126.892;2024-03-02T05:06:05;0.10;;;0.10;;
11638;SDS011;5875;35.940;126.892;2024-03-02T05:08:35;0.00;;;0.00;;
11638;SDS011;5875;35.940;126.892;2024-03-02T05:11:02;0.00;;;0.00;;
11638;SDS011;5875;35.940;126.892;2024-03-02T05:13:47;0.00;;;0.00;;
11638;SDS011;5875;35.940;126.892;2024-03-02T05:16:14;0.00;;;0.00;;
11638;SDS011;5875;35.940;126.892;2024-03-02T05:18:41;0.00;;;0.00;;
11638;SDS011;5875;35.940;126.892;2024-03-02T05:21:09;0.00;;;0.00;;
11638;SDS011;5875;35.940;126.892;2024-03-02T05:23:38;0.00;;;0.00;;
11638;SDS011;5875;35.940;126.892;2024-03-02T05:26:06;0.00;;;0.00;;
11638;SDS011;5875;35.940;126.892;2024-03-02T05:28:33;0.00;;;0.00;;
11638;SDS011;5875;35.940;126.892;2024-03-02T05:31:02;0.10;;;0.10;;
11638;SDS011;5875;35.940;126.892;2024-03-02T05:33:29;0.00;;;0.00;;
11638;SDS011;5875;35.940;126.892;2024-03-02T05:35:58;0.00;;;0.00;;
11638;SDS011;5875;35.940;126.892;2024-03-02T05:38:27;0.53;;;0.53;;
11638;SDS011;5875;35.940;126.892;2024-03-02T05:40:54;0.10;;;0.10;;
11638;SDS011;5875;35.940;126.892;2024-03-02T05:43:21;0.00;;;0.00;;
11638;SDS011;5875;35.940;126.892;2024-03-02T05:45:48;0.10;;;0.10;;
11638;SDS011;5875;35.940;126.892;2024-03-02T05:48:15;0.20;;;0.20;;
11638;SDS011;5875;35.940;126.892;2024-03-02T05:50:45;0.10;;;0.10;;
11638;SDS011;5875;35.940;126.892;2024-03-02T05:53:15;0.00;;;0.00;;
11638;SDS011;5875;35.940;126.892;2024-03-02T05:55:45;0.20;;;0.20;;
11638;SDS011;5875;35.940;126.892;2024-03-02T05:58:12;0.00;;;0.00;;
11638;SDS011;5875;35.940;126.892;2024-03-02T06:00:58;0.10;;;0.10;;
11638;SDS011;5875;35.940;126.892;2024-03-02T06:03:25;0.00;;;0.00;;
11638;SDS011;5875;35.940;126.892;2024-03-02T06:05:54;0.00;;;0.00;;
11638;SDS011;5875;35.940;126.892;2024-03-02T06:08:21;0.00;;;0.00;;
11638;SDS011;5875;35.940;126.892;2024-03-02T06:10:48;0.00;;;0.00;;
11638;SDS011;5875;35.940;126.892;2024-03-02T06:13:15;0.00;;;0.00;;
11638;SDS011;5875;35.940;126.892;2024-03-02T06:15:45;0.37;;;0.37;;
11638;SDS011;5875;35.940;126.892;2024-03-02T06:18:18;0.00;;;0.00;;
11638;SDS011;5875;35.940;126.892;2024-03-02T06:20:45;0.57;;;0.23;;
11638;SDS011;5875;35.940;126.892;2024-03-02T06:23:15;0.00;;;0.00;;
11638;SDS011;5875;35.940;126.892;2024-03-02T06:25:42;0.00;;;0.00;;
11638;SDS011;5875;35.940;126.892;2024-03-02T06:28:09;0.00;;;0.00;;
11638;SDS011;5875;35.940;126.892;2024-03-02T06:30:36;0.00;;;0.00;;
11638;SDS011;5875;35.940;126.892;2024-03-02T06:33:03;0.00;;;0.00;;
11638;SDS011;5875;35.940;126.892;2024-03-02T06:35:31;0.00;;;0.00;;
11638;SDS011;5875;35.940;126.892;2024-03-02T06:37:58;0.00;;;0.00;;
11638;SDS011;5875;35.940;126.892;2024-03-02T06:40:25;0.37;;;0.37;;
11638;SDS011;5875;35.940;126.892;2024-03-02T06:42:52;0.30;;;0.30;;
11638;SDS011;5875;35.940;126.892;2024-03-02T06:45:20;0.20;;;0.20;;
11638;SDS011;5875;35.940;126.892;2024-03-02T06:47:53;0.07;;;0.07;;
11638;SDS011;5875;35.940;126.892;2024-03-02T06:50:20;0.00;;;0.00;;
11638;SDS011;5875;35.940;126.892;2024-03-02T06:52:47;1.20;;;0.50;;
11638;SDS011;5875;35.940;126.892;2024-03-02T06:55:14;0.00;;;0.00;;
11638;SDS011;5875;35.940;126.892;2024-03-02T06:57:42;0.00;;;0.00;;
11638;SDS011;5875;35.940;126.892;2024-03-02T07:00:12;0.40;;;0.40;;
11638;SDS011;5875;35.940;126.892;2024-03-02T07:02:39;0.20;;;0.20;;
11638;SDS011;5875;35.940;126.892;2024-03-02T07:05:10;0.20;;;0.20;;
11638;SDS011;5875;35.940;126.892;2024-03-02T07:07:39;0.00;;;0.00;;
11638;SDS011;5875;35.940;126.892;2024-03-02T07:10:07;0.00;;;0.00;;
11638;SDS011;5875;35.940;126.892;2024-03-02T07:12:34;0.07;;;0.07;;
11638;SDS011;5875;35.940;126.892;2024-03-02T07:15:02;0.00;;;0.00;;
11638;SDS011;5875;35.940;126.892;2024-03-02T07:17:32;0.00;;;0.00;;
11638;SDS011;5875;35.940;126.892;2024-03-02T07:19:59;0.07;;;0.07;;
11638;SDS011;5875;35.940;126.892;2024-03-02T07:22:26;0.07;;;0.07;;
11638;SDS011;5875;35.940;126.892;2024-03-02T07:24:53;0.00;;;0.00;;
11638;SDS011;5875;35.940;126.892;2024-03-02T07:27:21;1.97;;;1.63;;
11638;SDS011;5875;35.940;126.892;2024-03-02T07:29:48;0.33;;;0.33;;
11638;SDS011;5875;35.940;126.892;2024-03-02T07:32:15;0.00;;;0.00;;
11638;SDS011;5875;35.940;126.892;2024-03-02T07:34:42;0.10;;;0.10;;
11638;SDS011;5875;35.940;126.892;2024-03-02T07:37:09;0.10;;;0.10;;
11638;SDS011;5875;35.940;126.892;2024-03-02T07:39:36;0.27;;;0.27;;
11638;SDS011;5875;35.940;126.892;2024-03-02T07:42:04;0.00;;;0.00;;
11638;SDS011;5875;35.940;126.892;2024-03-02T07:44:31;0.10;;;0.10;;
11638;SDS011;5875;35.940;126.892;2024-03-02T07:46:58;0.00;;;0.00;;
11638;SDS011;5875;35.940;126.892;2024-03-02T07:49:25;0.10;;;0.10;;
11638;SDS011;5875;35.940;126.892;2024-03-02T07:51:53;0.00;;;0.00;;
11638;SDS011;5875;35.940;126.892;2024-03-02T07:54:20;0.50;;;0.47;;
11638;SDS011;5875;35.940;126.892;2024-03-02T07:56:47;0.30;;;0.30;;
11638;SDS011;5875;35.940;126.892;2024-03-02T07:59:14;0.00;;;0.00;;
11638;SDS011;5875;35.940;126.892;2024-03-02T08:01:41;0.30;;;0.30;;
11638;SDS011;5875;35.940;126.892;2024-03-02T08:04:08;0.10;;;0.10;;
11638;SDS011;5875;35.940;126.892;2024-03-02T08:06:35;0.53;;;0.53;;
11638;SDS011;5875;35.940;126.892;2024-03-02T08:09:02;0.10;;;0.10;;
11638;SDS011;5875;35.940;126.892;2024-03-02T08:11:34;0.10;;;0.10;;
11638;SDS011;5875;35.940;126.892;2024-03-02T08:14:03;0.13;;;0.13;;
11638;SDS011;5875;35.940;126.892;2024-03-02T08:16:30;0.00;;;0.00;;
11638;SDS011;5875;35.940;126.892;2024-03-02T08:18:58;0.50;;;0.33;;
11638;SDS011;5875;35.940;126.892;2024-03-02T08:21:25;1.10;;;1.07;;
11638;SDS011;5875;35.940;126.892;2024-03-02T08:23:56;0.10;;;0.10;;
11638;SDS011;5875;35.940;126.892;2024-03-02T08:26:24;0.63;;;0.63;;
11638;SDS011;5875;35.940;126.892;2024-03-02T08:28:51;0.10;;;0.10;;
11638;SDS011;5875;35.940;126.892;2024-03-02T08:31:18;0.50;;;0.40;;
11638;SDS011;5875;35.940;126.892;2024-03-02T08:33:45;0.20;;;0.20;;
11638;SDS011;5875;35.940;126.892;2024-03-02T08:36:12;0.10;;;0.10;;
11638;SDS011;5875;35.940;126.892;2024-03-02T08:38:39;0.10;;;0.10;;
11638;SDS011;5875;35.940;126.892;2024-03-02T08:41:06;0.50;;;0.20;;
11638;SDS011;5875;35.940;126.892;2024-03-02T08:43:34;6.03;;;1.50;;
11638;SDS011;5875;35.940;126.892;2024-03-02T08:46:01;2.33;;;0.60;;
11638;SDS011;5875;35.940;126.892;2024-03-02T08:48:31;0.20;;;0.20;;
11638;SDS011;5875;35.940;126.892;2024-03-02T08:50:58;1.43;;;0.27;;
11638;SDS011;5875;35.940;126.892;2024-03-02T08:53:25;0.20;;;0.20;;
11638;SDS011;5875;35.940;126.892;2024-03-02T08:55:52;0.60;;;0.60;;
11638;SDS011;5875;35.940;126.892;2024-03-02T08:58:20;0.00;;;0.00;;
11638;SDS011;5875;35.940;126.892;2024-03-02T09:00:47;0.37;;;0.37;;
11638;SDS011;5875;35.940;126.892;2024-03-02T09:03:15;0.10;;;0.10;;
11638;SDS011;5875;35.940;126.892;2024-03-02T09:05:42;0.03;;;0.03;;
11638;SDS011;5875;35.940;126.892;2024-03-02T09:08:09;0.00;;;0.00;;
11638;SDS011;5875;35.940;126.892;2024-03-02T09:10:36;0.13;;;0.13;;
11638;SDS011;5875;35.940;126.892;2024-03-02T09:13:06;0.00;;;0.00;;
11638;SDS011;5875;35.940;126.892;2024-03-02T09:15:33;0.20;;;0.20;;
11638;SDS011;5875;35.940;126.892;2024-03-02T09:18:03;0.30;;;0.30;;
11638;SDS011;5875;35.940;126.892;2024-03-02T09:20:30;3.40;;;0.93;;
11638;SDS011;5875;35.940;126.892;2024-03-02T09:22:57;1.33;;;0.60;;
11638;SDS011;5875;35.940;126.892;2024-03-02T09:25:24;0.13;;;0.13;;
11638;SDS011;5875;35.940;126.892;2024-03-02T09:27:52;1.50;;;1.40;;
11638;SDS011;5875;35.940;126.892;2024-03-02T09:30:19;0.10;;;0.10;;
11638;SDS011;5875;35.940;126.892;2024-03-02T09:32:48;0.00;;;0.00;;
11638;SDS011;5875;35.940;126.892;2024-03-02T09:35:16;7.10;;;0.70;;
11638;SDS011;5875;35.940;126.892;2024-03-02T09:37:43;0.23;;;0.23;;
11638;SDS011;5875;35.940;126.892;2024-03-02T09:40:10;0.57;;;0.40;;
11638;SDS011;5875;35.940;126.892;2024-03-02T09:42:39;0.00;;;0.00;;
11638;SDS011;5875;35.940;126.892;2024-03-02T09:45:07;0.10;;;0.10;;
11638;SDS011;5875;35.940;126.892;2024-03-02T09:47:35;1.30;;;0.40;;
11638;SDS011;5875;35.940;126.892;2024-03-02T09:50:02;0.27;;;0.27;;
11638;SDS011;5875;35.940;126.892;2024-03-02T09:52:29;0.03;;;0.03;;
11638;SDS011;5875;35.940;126.892;2024-03-02T09:54:57;8.47;;;0.43;;
11638;SDS011;5875;35.940;126.892;2024-03-02T09:57:28;0.50;;;0.50;;
11638;SDS011;5875;35.940;126.892;2024-03-02T09:59:55;0.20;;;0.20;;
11638;SDS011;5875;35.940;126.892;2024-03-02T10:02:25;1.20;;;0.57;;
11638;SDS011;5875;35.940;126.892;2024-03-02T10:04:52;0.23;;;0.23;;
11638;SDS011;5875;35.940;126.892;2024-03-02T10:07:19;0.40;;;0.40;;
11638;SDS011;5875;35.940;126.892;2024-03-02T10:09:47;0.10;;;0.10;;
11638;SDS011;5875;35.940;126.892;2024-03-02T10:12:15;0.10;;;0.10;;
11638;SDS011;5875;35.940;126.892;2024-03-02T10:14:43;0.23;;;0.23;;
11638;SDS011;5875;35.940;126.892;2024-03-02T10:17:11;0.43;;;0.20;;
11638;SDS011;5875;35.940;126.892;2024-03-02T10:19:39;0.57;;;0.57;;
11638;SDS011;5875;35.940;126.892;2024-03-02T10:22:09;2.20;;;0.80;;
11638;SDS011;5875;35.940;126.892;2024-03-02T10:27:10;0.63;;;0.63;;
11638;SDS011;5875;35.940;126.892;2024-03-02T10:29:47;0.73;;;0.53;;
11638;SDS011;5875;35.940;126.892;2024-03-02T10:32:14;0.20;;;0.20;;
11638;SDS011;5875;35.940;126.892;2024-03-02T10:34:43;0.47;;;0.47;;
11638;SDS011;5875;35.940;126.892;2024-03-02T10:37:12;0.13;;;0.13;;
11638;SDS011;5875;35.940;126.892;2024-03-02T10:39:42;0.60;;;0.60;;
11638;SDS011;5875;35.940;126.892;2024-03-02T10:42:11;0.37;;;0.37;;
11638;SDS011;5875;35.940;126.892;2024-03-02T10:44:43;0.23;;;0.23;;
11638;SDS011;5875;35.940;126.892;2024-03-02T10:47:10;0.40;;;0.40;;
11638;SDS011;5875;35.940;126.892;2024-03-02T10:49:42;0.40;;;0.33;;
11638;SDS011;5875;35.940;126.892;2024-03-02T10:52:12;0.40;;;0.40;;
11638;SDS011;5875;35.940;126.892;2024-03-02T10:54:39;1.10;;;0.40;;
11638;SDS011;5875;35.940;126.892;2024-03-02T10:57:07;1.53;;;0.87;;
11638;SDS011;5875;35.940;126.892;2024-03-02T10:59:36;1.00;;;1.00;;
11638;SDS011;5875;35.940;126.892;2024-03-02T11:02:08;0.70;;;0.70;;
11638;SDS011;5875;35.940;126.892;2024-03-02T11:04:38;0.70;;;0.70;;
11638;SDS011;5875;35.940;126.892;2024-03-02T11:07:08;0.70;;;0.70;;
11638;SDS011;5875;35.940;126.892;2024-03-02T11:09:44;0.27;;;0.27;;
11638;SDS011;5875;35.940;126.892;2024-03-02T11:12:34;0.20;;;0.20;;
11638;SDS011;5875;35.940;126.892;2024-03-02T11:15:09;4.30;;;1.47;;
11638;SDS011;5875;35.940;126.892;2024-03-02T11:17:37;1.27;;;0.77;;
11638;SDS011;5875;35.940;126.892;2024-03-02T11:20:06;2.13;;;1.27;;
11638;SDS011;5875;35.940;126.892;2024-03-02T11:22:35;1.80;;;1.13;;
11638;SDS011;5875;35.940;126.892;2024-03-02T11:25:06;0.80;;;0.80;;
11638;SDS011;5875;35.940;126.892;2024-03-02T11:33:03;1.07;;;0.97;;
11638;SDS011;5875;35.940;126.892;2024-03-02T11:35:35;1.90;;;0.93;;
11638;SDS011;5875;35.940;126.892;2024-03-02T11:38:03;1.00;;;0.80;;
11638;SDS011;5875;35.940;126.892;2024-03-02T11:40:32;1.83;;;1.53;;
11638;SDS011;5875;35.940;126.892;2024-03-02T11:43:00;2.00;;;1.30;;
11638;SDS011;5875;35.940;126.892;2024-03-02T11:45:27;0.47;;;0.47;;
11638;SDS011;5875;35.940;126.892;2024-03-02T11:47:58;1.73;;;1.50;;
11638;SDS011;5875;35.940;126.892;2024-03-02T11:50:29;1.27;;;1.13;;
11638;SDS011;5875;35.940;126.892;2024-03-02T11:52:57;2.33;;;1.73;;
11638;SDS011;5875;35.940;126.892;2024-03-02T11:55:26;3.80;;;2.27;;
11638;SDS011;5875;35.940;126.892;2024-03-02T11:57:54;1.20;;;1.03;;
11638;SDS011;5875;35.940;126.892;2024-03-02T12:00:21;1.20;;;1.10;;
11638;SDS011;5875;35.940;126.892;2024-03-02T12:02:59;1.30;;;0.93;;
11638;SDS011;5875;35.940;126.892;2024-03-02T12:05:34;4.07;;;2.40;;
11638;SDS011;5875;35.940;126.892;2024-03-02T12:08:03;1.03;;;1.03;;
11638;SDS011;5875;35.940;126.892;2024-03-02T12:10:32;1.60;;;1.40;;
11638;SDS011;5875;35.940;126.892;2024-03-02T12:13:04;3.30;;;2.03;;
11638;SDS011;5875;35.940;126.892;2024-03-02T12:15:33;1.00;;;1.00;;
11638;SDS011;5875;35.940;126.892;2024-03-02T12:18:05;1.63;;;1.27;;
11638;SDS011;5875;35.940;126.892;2024-03-02T12:20:33;1.10;;;1.03;;
11638;SDS011;5875;35.940;126.892;2024-03-02T12:23:01;1.70;;;1.60;;
11638;SDS011;5875;35.940;126.892;2024-03-02T12:25:32;1.37;;;1.27;;
11638;SDS011;5875;35.940;126.892;2024-03-02T12:28:00;1.87;;;1.50;;
11638;SDS011;5875;35.940;126.892;2024-03-02T12:30:30;1.47;;;1.30;;
11638;SDS011;5875;35.940;126.892;2024-03-02T12:33:01;1.33;;;1.23;;
11638;SDS011;5875;35.940;126.892;2024-03-02T12:35:28;1.43;;;0.97;;
11638;SDS011;5875;35.940;126.892;2024-03-02T12:37:55;1.77;;;1.57;;
11638;SDS011;5875;35.940;126.892;2024-03-02T12:40:24;1.80;;;1.13;;
11638;SDS011;5875;35.940;126.892;2024-03-02T12:42:51;1.80;;;1.70;;
11638;SDS011;5875;35.940;126.892;2024-03-02T12:45:18;0.93;;;0.93;;
11638;SDS011;5875;35.940;126.892;2024-03-02T12:47:52;2.77;;;2.13;;
11638;SDS011;5875;35.940;126.892;2024-03-02T12:50:19;11.13;;;1.70;;
11638;SDS011;5875;35.940;126.892;2024-03-02T12:52:52;1.03;;;1.03;;
11638;SDS011;5875;35.940;126.892;2024-03-02T12:55:20;1.67;;;1.57;;
11638;SDS011;5875;35.940;126.892;2024-03-02T12:57:51;2.20;;;2.00;;
11638;SDS011;5875;35.940;126.892;2024-03-02T13:00:19;2.20;;;2.00;;
11638;SDS011;5875;35.940;126.892;2024-03-02T13:02:47;1.10;;;1.07;;
11638;SDS011;5875;35.940;126.892;2024-03-02T13:05:16;1.53;;;1.43;;
11638;SDS011;5875;35.940;126.892;2024-03-02T13:07:43;0.70;;;0.70;;
11638;SDS011;5875;35.940;126.892;2024-03-02T13:10:11;1.50;;;1.40;;
11638;SDS011;5875;35.940;126.892;2024-03-02T13:12:39;2.10;;;1.70;;
11638;SDS011;5875;35.940;126.892;2024-03-02T13:15:06;1.67;;;1.57;;
11638;SDS011;5875;35.940;126.892;2024-03-02T13:17:34;0.80;;;0.80;;
11638;SDS011;5875;35.940;126.892;2024-03-02T13:20:02;2.93;;;1.90;;
11638;SDS011;5875;35.940;126.892;2024-03-02T13:22:36;1.60;;;1.50;;
11638;SDS011;5875;35.940;126.892;2024-03-02T13:25:03;5.47;;;1.63;;
11638;SDS011;5875;35.940;126.892;2024-03-02T13:27:31;1.13;;;1.03;;
11638;SDS011;5875;35.940;126.892;2024-03-02T13:30:02;1.10;;;1.10;;
11638;SDS011;5875;35.940;126.892;2024-03-02T13:32:31;2.50;;;2.17;;
11638;SDS011;5875;35.940;126.892;2024-03-02T13:34:58;2.00;;;1.90;;
11638;SDS011;5875;35.940;126.892;2024-03-02T13:37:28;2.47;;;1.30;;
11638;SDS011;5875;35.940;126.892;2024-03-02T13:39:55;1.27;;;1.20;;
11638;SDS011;5875;35.940;126.892;2024-03-02T13:42:23;1.43;;;1.33;;
11638;SDS011;5875;35.940;126.892;2024-03-02T13:44:50;1.73;;;1.63;;
11638;SDS011;5875;35.940;126.892;2024-03-02T13:47:17;1.00;;;1.00;;
11638;SDS011;5875;35.940;126.892;2024-03-02T13:49:47;1.30;;;1.20;;
11638;SDS011;5875;35.940;126.892;2024-03-02T13:52:17;3.07;;;2.00;;
11638;SDS011;5875;35.940;126.892;2024-03-02T13:54:46;1.33;;;1.27;;
11638;SDS011;5875;35.940;126.892;2024-03-02T13:57:13;2.90;;;2.70;;
11638;SDS011;5875;35.940;126.892;2024-03-02T13:59:42;2.13;;;1.87;;
11638;SDS011;5875;35.940;126.892;2024-03-02T14:02:09;1.37;;;1.10;;
11638;SDS011;5875;35.940;126.892;2024-03-02T14:04:37;2.30;;;2.10;;
11638;SDS011;5875;35.940;126.892;2024-03-02T14:07:05;4.23;;;2.40;;
11638;SDS011;5875;35.940;126.892;2024-03-02T14:09:37;1.67;;;1.57;;
11638;SDS011;5875;35.940;126.892;2024-03-02T14:12:07;3.33;;;1.07;;
11638;SDS011;5875;35.940;126.892;2024-03-02T14:14:39;2.57;;;2.47;;
11638;SDS011;5875;35.940;126.892;2024-03-02T14:17:06;1.73;;;1.60;;
11638;SDS011;5875;35.940;126.892;2024-03-02T14:19:37;3.13;;;1.33;;
11638;SDS011;5875;35.940;126.892;2024-03-02T14:22:05;2.70;;;1.43;;
11638;SDS011;5875;35.940;126.892;2024-03-02T14:24:32;1.10;;;1.00;;
11638;SDS011;5875;35.940;126.892;2024-03-02T14:26:59;3.20;;;1.77;;
11638;SDS011;5875;35.940;126.892;2024-03-02T14:29:30;2.60;;;1.80;;
11638;SDS011;5875;35.940;126.892;2024-03-02T14:32:01;3.60;;;2.40;;
11638;SDS011;5875;35.940;126.892;2024-03-02T14:34:29;1.47;;;1.37;;
11638;SDS011;5875;35.940;126.892;2024-03-02T14:36:56;5.90;;;2.33;;
11638;SDS011;5875;35.940;126.892;2024-03-02T14:39:26;2.57;;;2.40;;
11638;SDS011;5875;35.940;126.892;2024-03-02T14:41:53;2.03;;;1.80;;
11638;SDS011;5875;35.940;126.892;2024-03-02T14:44:24;2.17;;;1.97;;
11638;SDS011;5875;35.940;126.892;2024-03-02T14:46:51;2.03;;;1.90;;
11638;SDS011;5875;35.940;126.892;2024-03-02T14:49:18;2.30;;;2.10;;
11638;SDS011;5875;35.940;126.892;2024-03-02T14:51:46;3.90;;;1.80;;